Česky Dansk Deutsch English Español Suomi Français Magyar Italiano Nederlands norsk Polski Português svenska Türkçe

 

Het Weer

La Roche-Sur-Yon (Frankrijk)

02:00, 2 augustus 2016 (GMT)

NWNNE
WE
SWSSE
Home            
La Roche-Sur-Yon Nantes La Rochelle Niort St-Nazaire Angers Poitiers Cognac Rennes Tours Le Mans Lann Bihoue Bordeaux / Merignac Dinard Limoges Alencon Saint-Brieuc Chateauroux Perigueux Cazaux Romorantin Biscarosse Quimper

Om een weerknop op uw website of weblog te plaatsen, copieer onderstaande code en plak die in uw pagina. In het eerste vakje staat HTML-code, in het tweede vakje UBB-code.


Add to Google

Details

Wind speed:2 bf, 4 kn, 2.1 m/s, 4.6 miles/h, 7.4 km/h
Wind direction:SW, 220°
Visibility:Greater than 10000 m, 10 km, 32800 ft, 6.2 miles
Clouds:CAVOC
Temperature:16°C, 61°F
Dew-point:14°C, 57°F
Atmospheric pressure:1020 hPa, 765.1 mmHg, 30.12 inHg, 1.007 atm
Relative humidity:87.9 %
METAR:LFRI 020200Z AUTO 22004KT CAVOK 16/14 Q1020

Snelkoppelingen

Actuele weersinformatie van de hele wereld. Voeg locaties toe met het plus (+) symbool. Deze snelkoppelingen kunnen worden toegevoegd aan Google.

Lid van de Technetium groep

website free tracking
StatCounter NetStat W3C Validator

16-05-2022 09:40:22
astro.technetium.be money.technetium.be phote.technetium.be tafeltennistafel.technetium.be www.ligfiets.net